Time;durP1;ratioP1;P1;durP2;ratioP2;P2;SDS_P1;SDS_P2;PMS_P1;PMS_P2;Temp;Humidity;BMP_temperature;BMP_pressure;BME280_temperature;BME280_humidity;BME280_pressure;Samples;Min_cycle;Max_cycle;Signal;HPM_P1;HPM_P2
2023/08/03 00:02:20;;;;;;;11.52;11.02;;;;;;;;;;5088162;28;20032;-60
2023/08/03 00:04:46;;;;;;;11.38;10.88;;;;;;;;;;5092192;28;20024;-60
2023/08/03 00:07:11;;;;;;;11.15;10.65;;;;;;;;;;5092614;28;20027;-60
2023/08/03 00:09:36;;;;;;;12.32;11.73;;;;;;;;;;5090357;28;20111;-61
2023/08/03 00:12:02;;;;;;;11.30;10.80;;;;;;;;;;5092914;28;20012;-60
2023/08/03 00:14:27;;;;;;;11.65;11.13;;;;;;;;;;5089168;28;20423;-60
2023/08/03 00:16:52;;;;;;;11.48;10.98;;;;;;;;;;5089753;28;20028;-59
2023/08/03 00:19:18;;;;;;;12.17;11.57;;;;;;;;;;5086295;28;20036;-61
2023/08/03 00:21:43;;;;;;;11.25;10.75;;;;;;;;;;5095499;28;20279;-61
2023/08/03 00:24:08;;;;;;;12.82;12.23;;;;;;;;;;5084730;28;20020;-60
2023/08/03 00:26:34;;;;;;;11.32;10.82;;;;;;;;;;5088683;28;20024;-61
2023/08/03 00:28:59;;;;;;;12.00;11.43;;;;;;;;;;5081678;28;20436;-60
2023/08/03 00:31:25;;;;;;;11.30;10.80;;;;;;;;;;5081260;28;20052;-61
2023/08/03 00:33:50;;;;;;;11.20;10.70;;;;;;;;;;5072684;28;20020;-59
2023/08/03 00:36:15;;;;;;;11.18;10.68;;;;;;;;;;5087983;28;20020;-60
2023/08/03 00:38:40;;;;;;;11.65;11.15;;;;;;;;;;5087939;28;20040;-60
2023/08/03 00:41:06;;;;;;;12.02;11.48;;;;;;;;;;5086012;28;20110;-60
2023/08/03 00:43:31;;;;;;;11.13;10.63;;;;;;;;;;5088676;28;20110;-60
2023/08/03 00:45:57;;;;;;;11.52;11.02;;;;;;;;;;5087089;28;20039;-60
2023/08/03 00:48:22;;;;;;;12.10;11.50;;;;;;;;;;5090152;28;20013;-60
2023/08/03 00:50:47;;;;;;;11.82;11.30;;;;;;;;;;5094136;28;20548;-59
2023/08/03 00:53:13;;;;;;;11.27;10.77;;;;;;;;;;5090562;28;20024;-60
2023/08/03 00:55:38;;;;;;;11.77;11.25;;;;;;;;;;5093507;28;20101;-60
2023/08/03 00:58:04;;;;;;;11.77;11.27;;;;;;;;;;5087052;28;20028;-61
2023/08/03 01:00:29;;;;;;;12.30;11.70;;;;;;;;;;5087987;28;20385;-62
2023/08/03 01:02:54;;;;;;;11.65;11.15;;;;;;;;;;5093044;28;20032;-60
2023/08/03 01:05:19;;;;;;;11.88;11.32;;;;;;;;;;5083694;28;20036;-61
2023/08/03 01:07:45;;;;;;;11.55;11.05;;;;;;;;;;5092156;28;20022;-61
2023/08/03 01:10:10;;;;;;;11.27;10.77;;;;;;;;;;5093989;28;20024;-60
2023/08/03 01:12:35;;;;;;;11.50;11.00;;;;;;;;;;5095123;28;20024;-61
2023/08/03 01:15:01;;;;;;;11.70;11.20;;;;;;;;;;5096935;28;20453;-61
2023/08/03 01:17:26;;;;;;;11.57;11.07;;;;;;;;;;5087684;28;20056;-60
2023/08/03 01:19:51;;;;;;;11.43;10.93;;;;;;;;;;5088007;28;20020;-60
2023/08/03 01:22:17;;;;;;;11.27;10.77;;;;;;;;;;5073718;28;20118;-61
2023/08/03 01:24:43;;;;;;;11.38;10.88;;;;;;;;;;5087738;28;20055;-61
2023/08/03 01:27:08;;;;;;;11.40;10.90;;;;;;;;;;5095033;28;20027;-60
2023/08/03 01:29:33;;;;;;;11.50;11.00;;;;;;;;;;5091743;28;20012;-60
2023/08/03 01:32:00;;;;;;;11.50;11.00;;;;;;;;;;5084889;28;20329;-61
2023/08/03 01:34:26;;;;;;;11.35;10.85;;;;;;;;;;5084985;28;20067;-60
2023/08/03 01:36:52;;;;;;;11.95;11.35;;;;;;;;;;5088718;28;20028;-61
2023/08/03 01:39:17;;;;;;;11.27;10.77;;;;;;;;;;5091683;28;20560;-60
2023/08/03 01:41:43;;;;;;;11.07;10.57;;;;;;;;;;5090980;28;20514;-60
2023/08/03 01:44:11;;;;;;;11.98;11.38;;;;;;;;;;5088480;28;20019;-60
2023/08/03 01:46:36;;;;;;;11.68;11.18;;;;;;;;;;5091794;28;20072;-60
2023/08/03 01:49:02;;;;;;;11.77;11.20;;;;;;;;;;5087157;28;20023;-62
2023/08/03 01:51:27;;;;;;;11.57;11.07;;;;;;;;;;5087207;28;20588;-62
2023/08/03 01:53:52;;;;;;;11.30;10.80;;;;;;;;;;5090597;28;20070;-59
2023/08/03 01:56:18;;;;;;;13.45;12.75;;;;;;;;;;5087130;28;20483;-60
2023/08/03 01:58:43;;;;;;;11.55;11.05;;;;;;;;;;5079198;28;20047;-60
2023/08/03 02:01:09;;;;;;;12.02;11.43;;;;;;;;;;5092121;28;20109;-60
2023/08/03 02:03:34;;;;;;;11.10;10.60;;;;;;;;;;5075280;28;20030;-59
2023/08/03 02:05:59;;;;;;;10.98;10.48;;;;;;;;;;5091215;28;20050;-61
2023/08/03 02:08:24;;;;;;;12.20;11.60;;;;;;;;;;5085908;28;20091;-60
2023/08/03 02:10:50;;;;;;;11.45;10.95;;;;;;;;;;5093519;28;20399;-60
2023/08/03 02:13:15;;;;;;;11.68;11.18;;;;;;;;;;5090870;28;20132;-61
2023/08/03 02:15:41;;;;;;;11.57;11.07;;;;;;;;;;5088177;28;20052;-60
2023/08/03 02:18:06;;;;;;;11.75;11.25;;;;;;;;;;5094726;28;20479;-60
2023/08/03 02:20:31;;;;;;;11.68;11.18;;;;;;;;;;5089930;28;20510;-62
2023/08/03 02:22:57;;;;;;;11.23;10.73;;;;;;;;;;5089364;28;20024;-61
2023/08/03 02:25:23;;;;;;;11.65;11.15;;;;;;;;;;5094417;28;20023;-61
2023/08/03 02:27:49;;;;;;;11.55;11.05;;;;;;;;;;5093951;28;20027;-60
2023/08/03 02:30:14;;;;;;;11.35;10.85;;;;;;;;;;5091344;28;20383;-60
2023/08/03 02:32:39;;;;;;;11.80;11.23;;;;;;;;;;5094118;28;20533;-60
2023/08/03 02:35:05;;;;;;;11.80;11.25;;;;;;;;;;5088158;28;20123;-61
2023/08/03 02:37:30;;;;;;;11.65;11.15;;;;;;;;;;5091586;28;20121;-60
2023/08/03 02:39:55;;;;;;;11.48;10.98;;;;;;;;;;5092323;28;20085;-61
2023/08/03 02:42:21;;;;;;;11.48;10.98;;;;;;;;;;5092868;28;20387;-59
2023/08/03 02:44:46;;;;;;;11.57;11.07;;;;;;;;;;5094098;28;20107;-61
2023/08/03 02:47:11;;;;;;;12.15;11.55;;;;;;;;;;5094211;28;20023;-60
2023/08/03 02:49:37;;;;;;;11.30;10.80;;;;;;;;;;5089617;28;20020;-61
2023/08/03 02:52:05;;;;;;;11.23;10.73;;;;;;;;;;5090168;28;20020;-60
2023/08/03 02:54:31;;;;;;;11.30;10.80;;;;;;;;;;5089752;28;20019;-60
2023/08/03 02:56:56;;;;;;;11.98;11.38;;;;;;;;;;5089665;28;20027;-60
2023/08/03 02:59:21;;;;;;;11.57;11.07;;;;;;;;;;5088435;28;20024;-61
2023/08/03 03:01:47;;;;;;;11.68;11.18;;;;;;;;;;5091587;28;20072;-60
2023/08/03 03:04:12;;;;;;;11.18;10.68;;;;;;;;;;5096470;28;20024;-60
2023/08/03 03:06:38;;;;;;;12.27;11.68;;;;;;;;;;5080866;28;20027;-60
2023/08/03 03:09:04;;;;;;;11.43;10.93;;;;;;;;;;5089432;28;20036;-60
2023/08/03 03:11:29;;;;;;;11.70;11.20;;;;;;;;;;5090388;28;20438;-60
2023/08/03 03:13:54;;;;;;;11.55;11.05;;;;;;;;;;5092342;28;20848;-61
2023/08/03 03:16:25;;;;;;;11.48;10.98;;;;;;;;;;5090343;28;20031;-60
2023/08/03 03:18:51;;;;;;;11.68;11.18;;;;;;;;;;5085279;28;20032;-60
2023/08/03 03:21:16;;;;;;;11.10;10.60;;;;;;;;;;5088829;28;20094;-60
2023/08/03 03:23:41;;;;;;;11.65;11.15;;;;;;;;;;5093059;28;20407;-60
2023/08/03 03:26:06;;;;;;;11.85;11.35;;;;;;;;;;5090631;28;20047;-60
2023/08/03 03:28:32;;;;;;;11.30;10.80;;;;;;;;;;5087621;28;20026;-61
2023/08/03 03:30:57;;;;;;;11.70;11.20;;;;;;;;;;5086013;28;20517;-60
2023/08/03 03:33:22;;;;;;;12.05;11.52;;;;;;;;;;5087672;28;20265;-61
2023/08/03 03:35:48;;;;;;;11.85;11.35;;;;;;;;;;5086546;28;20476;-62
2023/08/03 03:38:14;;;;;;;11.65;11.15;;;;;;;;;;5096716;28;20109;-61
2023/08/03 03:40:39;;;;;;;11.60;11.10;;;;;;;;;;5087154;28;20037;-60
2023/08/03 03:43:04;;;;;;;11.75;11.25;;;;;;;;;;5087972;28;20718;-60
2023/08/03 03:45:29;;;;;;;12.20;11.70;;;;;;;;;;5088245;28;20024;-60
2023/08/03 03:47:55;;;;;;;12.15;11.65;;;;;;;;;;5085057;28;20024;-61
2023/08/03 03:50:21;;;;;;;12.65;12.05;;;;;;;;;;5087430;28;20375;-61
2023/08/03 03:52:47;;;;;;;11.90;11.40;;;;;;;;;;5084665;28;20024;-61
2023/08/03 03:55:12;;;;;;;11.55;11.05;;;;;;;;;;5088744;28;20172;-60
2023/08/03 03:57:38;;;;;;;11.80;11.30;;;;;;;;;;5086111;28;20039;-61
2023/08/03 04:00:04;;;;;;;12.02;11.52;;;;;;;;;;5092715;28;20051;-61
2023/08/03 04:02:30;;;;;;;12.20;11.70;;;;;;;;;;5087107;28;20040;-60
2023/08/03 04:04:55;;;;;;;11.80;11.30;;;;;;;;;;5086142;28;20480;-60
2023/08/03 04:07:20;;;;;;;11.63;11.13;;;;;;;;;;5087196;28;20359;-60
2023/08/03 04:09:47;;;;;;;11.68;11.18;;;;;;;;;;5087026;28;20506;-61
2023/08/03 04:12:12;;;;;;;11.95;11.45;;;;;;;;;;5093068;28;20024;-61
2023/08/03 04:14:38;;;;;;;12.00;11.50;;;;;;;;;;5089558;28;20024;-61
2023/08/03 04:17:03;;;;;;;12.10;11.60;;;;;;;;;;5086277;28;20368;-61
2023/08/03 04:19:28;;;;;;;11.75;11.25;;;;;;;;;;5087745;28;20373;-61
2023/08/03 04:21:54;;;;;;;12.05;11.55;;;;;;;;;;5083673;28;20092;-61
2023/08/03 04:24:19;;;;;;;12.10;11.60;;;;;;;;;;5085520;28;20023;-62
2023/08/03 04:26:44;;;;;;;11.80;11.30;;;;;;;;;;5092120;28;20055;-60
2023/08/03 04:29:10;;;;;;;11.70;11.20;;;;;;;;;;5084139;28;20055;-60
2023/08/03 04:31:35;;;;;;;12.00;11.50;;;;;;;;;;5085281;28;20020;-60
2023/08/03 04:34:00;;;;;;;11.90;11.40;;;;;;;;;;5089491;28;20030;-60
2023/08/03 04:36:25;;;;;;;11.70;11.20;;;;;;;;;;5085037;28;20364;-61
2023/08/03 04:38:51;;;;;;;11.63;11.13;;;;;;;;;;5087226;28;20762;-61
2023/08/03 04:41:16;;;;;;;11.57;11.07;;;;;;;;;;5086048;28;20035;-61
2023/08/03 04:43:42;;;;;;;11.75;11.25;;;;;;;;;;5084095;28;20620;-61
2023/08/03 04:46:08;;;;;;;11.43;10.93;;;;;;;;;;5082782;28;21869;-62
2023/08/03 04:48:33;;;;;;;11.90;11.40;;;;;;;;;;5083089;28;20414;-61
2023/08/03 04:50:59;;;;;;;11.60;11.10;;;;;;;;;;5089829;28;20038;-61
2023/08/03 04:53:24;;;;;;;11.77;11.27;;;;;;;;;;5086873;28;20789;-60
2023/08/03 04:55:49;;;;;;;11.37;10.87;;;;;;;;;;5084746;28;20043;-61
2023/08/03 04:58:15;;;;;;;11.40;10.90;;;;;;;;;;5089674;28;20347;-61
2023/08/03 05:00:40;;;;;;;11.75;11.25;;;;;;;;;;5094054;28;20052;-62
2023/08/03 05:03:05;;;;;;;11.53;11.03;;;;;;;;;;5089911;28;20479;-62
2023/08/03 05:05:31;;;;;;;11.77;11.27;;;;;;;;;;5088572;28;20063;-61
2023/08/03 05:07:56;;;;;;;11.60;11.10;;;;;;;;;;5085928;28;20080;-61
2023/08/03 05:10:21;;;;;;;12.00;11.50;;;;;;;;;;5084947;28;20031;-61
2023/08/03 05:12:46;;;;;;;12.00;11.50;;;;;;;;;;5078995;28;20048;-61
2023/08/03 05:15:12;;;;;;;11.50;11.00;;;;;;;;;;5083641;28;20479;-62
2023/08/03 05:17:37;;;;;;;11.73;11.23;;;;;;;;;;5091929;28;20032;-62
2023/08/03 05:20:02;;;;;;;11.70;11.20;;;;;;;;;;5085182;28;20398;-62
2023/08/03 05:22:27;;;;;;;11.65;11.15;;;;;;;;;;5093346;28;20023;-61
2023/08/03 05:24:53;;;;;;;11.87;11.37;;;;;;;;;;5086523;28;20484;-61
2023/08/03 05:27:18;;;;;;;11.65;11.15;;;;;;;;;;5090650;28;20026;-61
2023/08/03 05:29:44;;;;;;;11.63;11.13;;;;;;;;;;5086676;28;20106;-61
2023/08/03 05:32:10;;;;;;;11.48;10.98;;;;;;;;;;5083932;28;20036;-61
2023/08/03 05:34:35;;;;;;;11.50;11.00;;;;;;;;;;5086610;28;20024;-61
2023/08/03 05:37:00;;;;;;;11.40;10.90;;;;;;;;;;5078981;28;20032;-61
2023/08/03 05:39:26;;;;;;;11.90;11.40;;;;;;;;;;5093566;28;20059;-61
2023/08/03 05:41:51;;;;;;;11.90;11.40;;;;;;;;;;5087483;28;20299;-61
2023/08/03 05:44:17;;;;;;;11.90;11.40;;;;;;;;;;5092593;28;20394;-61
2023/08/03 05:46:42;;;;;;;11.70;11.20;;;;;;;;;;5088322;28;20498;-61
2023/08/03 05:49:08;;;;;;;11.55;11.05;;;;;;;;;;5090589;28;20748;-61
2023/08/03 05:51:33;;;;;;;11.50;11.00;;;;;;;;;;5085244;28;20020;-61
2023/08/03 05:53:59;;;;;;;11.65;11.15;;;;;;;;;;5093181;28;20116;-60
2023/08/03 05:56:24;;;;;;;11.57;11.07;;;;;;;;;;5091894;28;20027;-60
2023/08/03 05:58:50;;;;;;;11.32;10.82;;;;;;;;;;5088027;28;20260;-60
2023/08/03 06:01:19;;;;;;;11.80;11.30;;;;;;;;;;5089773;28;20120;-62
2023/08/03 06:03:45;;;;;;;11.75;11.25;;;;;;;;;;5087823;28;20019;-62
2023/08/03 06:06:14;;;;;;;11.40;10.90;;;;;;;;;;5083700;28;20316;-62
2023/08/03 06:08:42;;;;;;;11.80;11.30;;;;;;;;;;5083961;28;20637;-61
2023/08/03 06:11:09;;;;;;;11.75;11.25;;;;;;;;;;5088533;28;20016;-61
2023/08/03 06:13:34;;;;;;;11.48;10.98;;;;;;;;;;5084067;28;20479;-61
2023/08/03 06:16:03;;;;;;;11.57;11.07;;;;;;;;;;5086081;28;20032;-61
2023/08/03 06:18:30;;;;;;;11.55;11.05;;;;;;;;;;5083069;28;20032;-61
2023/08/03 06:20:55;;;;;;;11.82;11.32;;;;;;;;;;5082778;28;20024;-60
2023/08/03 06:23:22;;;;;;;11.60;11.10;;;;;;;;;;5082588;28;20153;-61
2023/08/03 06:25:47;;;;;;;11.70;11.20;;;;;;;;;;5087325;28;20107;-61
2023/08/03 06:28:16;;;;;;;11.65;11.15;;;;;;;;;;5086346;28;20028;-60
2023/08/03 06:30:42;;;;;;;11.45;10.95;;;;;;;;;;5087263;28;20030;-59
2023/08/03 06:33:09;;;;;;;11.55;11.05;;;;;;;;;;5086942;28;20016;-60
2023/08/03 06:35:37;;;;;;;11.50;11.00;;;;;;;;;;5087951;28;20020;-60
2023/08/03 06:38:03;;;;;;;11.73;11.23;;;;;;;;;;5082448;28;20031;-60
2023/08/03 06:40:28;;;;;;;11.65;11.15;;;;;;;;;;5085461;28;20024;-61
2023/08/03 06:42:54;;;;;;;11.40;10.90;;;;;;;;;;5085498;28;20503;-61
2023/08/03 06:45:19;;;;;;;11.60;11.10;;;;;;;;;;5088139;28;20036;-60
2023/08/03 06:47:44;;;;;;;11.50;11.00;;;;;;;;;;5083683;28;20035;-61
2023/08/03 06:50:10;;;;;;;11.25;10.75;;;;;;;;;;5085459;28;20264;-61
2023/08/03 06:52:35;;;;;;;11.85;11.35;;;;;;;;;;5084476;28;20041;-61
2023/08/03 06:55:01;;;;;;;11.77;11.27;;;;;;;;;;5087951;28;20491;-62
2023/08/03 06:57:26;;;;;;;11.70;11.20;;;;;;;;;;5096037;28;20459;-61
2023/08/03 06:59:53;;;;;;;11.85;11.35;;;;;;;;;;5089741;28;20040;-60
2023/08/03 07:02:18;;;;;;;11.60;11.10;;;;;;;;;;5085727;28;20070;-61
2023/08/03 07:04:44;;;;;;;11.77;11.27;;;;;;;;;;5079677;28;20051;-62
2023/08/03 07:07:09;;;;;;;12.07;11.57;;;;;;;;;;5083373;28;20917;-61
2023/08/03 07:09:34;;;;;;;12.20;11.70;;;;;;;;;;5087535;28;20028;-62
2023/08/03 07:12:00;;;;;;;12.13;11.63;;;;;;;;;;5085746;28;20093;-62
2023/08/03 07:14:25;;;;;;;11.90;11.40;;;;;;;;;;5084008;28;20103;-62
2023/08/03 07:16:50;;;;;;;11.73;11.23;;;;;;;;;;5082120;28;20039;-62
2023/08/03 07:19:18;;;;;;;11.53;11.03;;;;;;;;;;5084255;28;20028;-63
2023/08/03 07:21:43;;;;;;;11.77;11.27;;;;;;;;;;5085424;28;20092;-63
2023/08/03 07:24:09;;;;;;;11.70;11.20;;;;;;;;;;5085933;28;20518;-62
2023/08/03 07:26:34;;;;;;;12.20;11.70;;;;;;;;;;5083911;28;20020;-63
2023/08/03 07:28:59;;;;;;;11.70;11.20;;;;;;;;;;5082499;28;20027;-62
2023/08/03 07:31:26;;;;;;;12.07;11.57;;;;;;;;;;5084115;28;20023;-63
2023/08/03 07:33:51;;;;;;;11.82;11.32;;;;;;;;;;5085275;28;20036;-61
2023/08/03 07:36:19;;;;;;;11.75;11.25;;;;;;;;;;5084897;28;20020;-64
2023/08/03 07:38:44;;;;;;;11.82;11.32;;;;;;;;;;5080498;28;20021;-63
2023/08/03 07:41:10;;;;;;;11.63;11.13;;;;;;;;;;5085896;28;20035;-61
2023/08/03 07:43:35;;;;;;;11.80;11.30;;;;;;;;;;5087003;28;20028;-64
2023/08/03 07:46:03;;;;;;;11.83;11.33;;;;;;;;;;5092805;28;20353;-63
2023/08/03 07:48:28;;;;;;;11.90;11.40;;;;;;;;;;5086881;28;20077;-62
2023/08/03 07:50:54;;;;;;;11.87;11.37;;;;;;;;;;5084260;28;20016;-64
2023/08/03 07:53:19;;;;;;;11.87;11.37;;;;;;;;;;5079984;28;20264;-61
2023/08/03 07:55:44;;;;;;;12.20;11.70;;;;;;;;;;5086168;28;20288;-63
2023/08/03 07:58:11;;;;;;;11.83;11.33;;;;;;;;;;5082224;28;20300;-63
2023/08/03 08:00:36;;;;;;;11.88;11.38;;;;;;;;;;5089672;28;20420;-63
2023/08/03 08:03:01;;;;;;;12.30;11.80;;;;;;;;;;5084540;28;20023;-63
2023/08/03 08:05:26;;;;;;;12.20;11.70;;;;;;;;;;5084533;28;20957;-61
2023/08/03 08:07:53;;;;;;;12.45;11.85;;;;;;;;;;5082637;28;20031;-62
2023/08/03 08:10:18;;;;;;;12.57;11.98;;;;;;;;;;5086189;28;20471;-61
2023/08/03 08:12:43;;;;;;;12.75;12.15;;;;;;;;;;5080487;28;20028;-62
2023/08/03 08:15:09;;;;;;;12.77;12.17;;;;;;;;;;5086443;28;20387;-60
2023/08/03 08:17:34;;;;;;;13.00;12.40;;;;;;;;;;5079533;28;20265;-61
2023/08/03 08:19:59;;;;;;;13.10;12.50;;;;;;;;;;5080924;28;20260;-63
2023/08/03 08:22:24;;;;;;;12.43;11.83;;;;;;;;;;5088748;28;20020;-62
2023/08/03 08:24:50;;;;;;;12.70;12.10;;;;;;;;;;5086615;28;20268;-62
2023/08/03 08:27:16;;;;;;;13.00;12.40;;;;;;;;;;5081442;28;20276;-62
2023/08/03 08:29:43;;;;;;;12.77;12.18;;;;;;;;;;5084317;28;20275;-62
2023/08/03 08:32:09;;;;;;;12.75;12.15;;;;;;;;;;5079316;28;20679;-62
2023/08/03 08:34:34;;;;;;;13.03;12.43;;;;;;;;;;5083282;28;20028;-60
2023/08/03 08:36:59;;;;;;;11.93;11.43;;;;;;;;;;5086158;28;20279;-60
2023/08/03 08:39:25;;;;;;;12.70;12.10;;;;;;;;;;5085312;28;20046;-61
2023/08/03 08:41:50;;;;;;;13.27;12.68;;;;;;;;;;5081248;28;20029;-61
2023/08/03 08:44:15;;;;;;;12.47;11.87;;;;;;;;;;5083563;28;20024;-62
2023/08/03 08:46:42;;;;;;;13.30;12.70;;;;;;;;;;5086415;28;20656;-61
2023/08/03 08:49:07;;;;;;;13.10;12.50;;;;;;;;;;5085229;28;20296;-63
2023/08/03 08:51:32;;;;;;;13.03;12.43;;;;;;;;;;5088553;28;20379;-63
2023/08/03 08:53:58;;;;;;;12.35;11.77;;;;;;;;;;5086440;28;20271;-63
2023/08/03 08:56:23;;;;;;;12.43;11.83;;;;;;;;;;5080003;28;20027;-63
2023/08/03 08:58:48;;;;;;;12.73;12.13;;;;;;;;;;5086930;28;20366;-62
2023/08/03 09:01:13;;;;;;;12.50;11.90;;;;;;;;;;5077050;28;20292;-63
2023/08/03 09:03:47;;;;;;;12.20;11.67;;;;;;;;;;5088910;28;20276;-63
2023/08/03 09:06:12;;;;;;;12.77;12.18;;;;;;;;;;5087184;28;20421;-62
2023/08/03 09:08:49;;;;;;;12.73;12.13;;;;;;;;;;5090248;28;20435;-62
2023/08/03 09:11:14;;;;;;;12.52;11.93;;;;;;;;;;5093391;28;20024;-62
2023/08/03 09:13:39;;;;;;;12.77;12.18;;;;;;;;;;5096766;28;20024;-63
2023/08/03 09:16:05;;;;;;;12.93;12.33;;;;;;;;;;5091573;28;20544;-61
2023/08/03 09:18:31;;;;;;;12.07;11.57;;;;;;;;;;5092865;28;20067;-62
2023/08/03 09:21:08;;;;;;;12.73;12.13;;;;;;;;;;5092016;28;20024;-63
2023/08/03 09:23:34;;;;;;;12.30;11.70;;;;;;;;;;5094417;28;20036;-65
2023/08/03 09:25:59;;;;;;;12.60;12.00;;;;;;;;;;5095363;28;20027;-65
2023/08/03 09:28:37;;;;;;;13.13;12.53;;;;;;;;;;5092260;28;20526;-63
2023/08/03 09:31:03;;;;;;;11.68;11.18;;;;;;;;;;5089704;28;20023;-65
2023/08/03 09:33:29;;;;;;;12.05;11.55;;;;;;;;;;5090112;28;20084;-65
2023/08/03 09:36:13;;;;;;;11.90;11.40;;;;;;;;;;5092335;28;20081;-64
2023/08/03 09:38:39;;;;;;;12.02;11.52;;;;;;;;;;5089772;28;20047;-65
2023/08/03 09:41:05;;;;;;;12.07;11.57;;;;;;;;;;5086887;28;20070;-65
2023/08/03 09:43:31;;;;;;;11.48;10.98;;;;;;;;;;5094282;28;20028;-64
2023/08/03 09:45:57;;;;;;;12.10;11.60;;;;;;;;;;5098965;28;20115;-63
2023/08/03 09:48:23;;;;;;;12.00;11.50;;;;;;;;;;5091212;28;20432;-65
2023/08/03 09:50:56;;;;;;;12.38;11.77;;;;;;;;;;5090179;28;20077;-66
2023/08/03 09:53:23;;;;;;;12.38;11.77;;;;;;;;;;5091194;28;20367;-65
2023/08/03 09:55:58;;;;;;;11.80;11.30;;;;;;;;;;5091670;28;20068;-65
2023/08/03 09:58:42;;;;;;;11.55;11.05;;;;;;;;;;5090703;28;20491;-65
2023/08/03 10:01:09;;;;;;;11.75;11.25;;;;;;;;;;5100791;28;20071;-64
2023/08/03 10:03:35;;;;;;;12.38;11.77;;;;;;;;;;5089131;28;20049;-64
2023/08/03 10:06:07;;;;;;;11.55;11.05;;;;;;;;;;5092634;28;20501;-66
2023/08/03 10:08:38;;;;;;;11.52;11.02;;;;;;;;;;5092140;28;20115;-64
2023/08/03 10:11:06;;;;;;;11.82;11.32;;;;;;;;;;5097085;28;20016;-65
2023/08/03 10:13:38;;;;;;;11.43;10.93;;;;;;;;;;5094540;28;20031;-65
2023/08/03 10:16:04;;;;;;;12.00;11.50;;;;;;;;;;5090295;28;20058;-65
2023/08/03 10:18:30;;;;;;;11.48;10.98;;;;;;;;;;5094022;28;20020;-65
2023/08/03 10:20:56;;;;;;;12.80;12.20;;;;;;;;;;5091984;28;20114;-65
2023/08/03 10:23:22;;;;;;;12.43;11.82;;;;;;;;;;5088631;28;20114;-64
2023/08/03 10:25:55;;;;;;;11.98;11.48;;;;;;;;;;5089608;28;20020;-64
2023/08/03 10:28:21;;;;;;;11.93;11.43;;;;;;;;;;5096873;28;20031;-64
2023/08/03 10:31:07;;;;;;;12.23;11.68;;;;;;;;;;5087307;28;20020;-65
2023/08/03 10:33:51;;;;;;;12.73;12.13;;;;;;;;;;5075416;28;20029;-64
2023/08/03 10:36:28;;;;;;;12.00;11.50;;;;;;;;;;5087419;28;20028;-65
2023/08/03 10:39:00;;;;;;;12.10;11.60;;;;;;;;;;5081071;28;20037;-64
2023/08/03 10:41:27;;;;;;;12.10;11.60;;;;;;;;;;5088906;28;20085;-65
2023/08/03 10:44:22;;;;;;;11.85;11.35;;;;;;;;;;5085911;28;20026;-65
2023/08/03 10:46:48;;;;;;;11.73;11.23;;;;;;;;;;5068768;28;20043;-65
2023/08/03 10:49:19;;;;;;;12.50;11.90;;;;;;;;;;5094698;28;20020;-65
2023/08/03 10:51:45;;;;;;;11.90;11.40;;;;;;;;;;5083270;28;20065;-65
2023/08/03 10:54:10;;;;;;;11.90;11.40;;;;;;;;;;5084986;28;20020;-64
2023/08/03 10:56:36;;;;;;;11.97;11.47;;;;;;;;;;5090382;28;20028;-64
2023/08/03 10:59:02;;;;;;;11.50;11.00;;;;;;;;;;5091787;28;20264;-65
2023/08/03 11:01:27;;;;;;;12.05;11.55;;;;;;;;;;5082382;28;20426;-63
2023/08/03 11:03:53;;;;;;;11.32;10.82;;;;;;;;;;5091887;28;20119;-65
2023/08/03 11:06:19;;;;;;;12.00;11.50;;;;;;;;;;5094220;28;20036;-65
2023/08/03 11:08:44;;;;;;;11.50;11.00;;;;;;;;;;5091418;28;20479;-65
2023/08/03 11:11:11;;;;;;;12.00;11.50;;;;;;;;;;5084055;28;20372;-65
2023/08/03 11:13:36;;;;;;;11.88;11.38;;;;;;;;;;5092767;28;20052;-65
2023/08/03 11:16:01;;;;;;;11.50;11.00;;;;;;;;;;5088074;28;20246;-63
2023/08/03 11:18:27;;;;;;;12.13;11.63;;;;;;;;;;5074236;28;20024;-64
2023/08/03 11:20:52;;;;;;;11.93;11.43;;;;;;;;;;5068203;28;20276;-64
2023/08/03 11:23:17;;;;;;;11.80;11.30;;;;;;;;;;5083414;28;20282;-62
2023/08/03 11:25:42;;;;;;;11.93;11.43;;;;;;;;;;5083386;28;20028;-63
2023/08/03 11:28:08;;;;;;;12.13;11.63;;;;;;;;;;5086319;28;20236;-63
2023/08/03 11:30:42;;;;;;;12.48;11.88;;;;;;;;;;5084692;28;20310;-63
2023/08/03 11:33:11;;;;;;;11.57;11.07;;;;;;;;;;5086959;28;20094;-63
2023/08/03 11:35:37;;;;;;;12.00;11.50;;;;;;;;;;5087038;28;20034;-62
2023/08/03 11:38:05;;;;;;;12.40;11.80;;;;;;;;;;5093723;28;20019;-63
2023/08/03 11:40:30;;;;;;;12.18;11.65;;;;;;;;;;5083310;28;20116;-64
2023/08/03 11:42:56;;;;;;;11.73;11.23;;;;;;;;;;5086251;28;20100;-63
2023/08/03 11:45:21;;;;;;;12.40;11.80;;;;;;;;;;5079307;28;20032;-62
2023/08/03 11:47:47;;;;;;;12.98;12.38;;;;;;;;;;5083740;28;20031;-60
2023/08/03 11:50:13;;;;;;;12.93;12.32;;;;;;;;;;5080212;28;20103;-62
2023/08/03 11:52:39;;;;;;;12.48;11.88;;;;;;;;;;5097296;28;20479;-61
2023/08/03 11:55:04;;;;;;;11.93;11.43;;;;;;;;;;5091658;28;20016;-61
2023/08/03 12:00:14;;;;;;;12.57;11.98;;;;;;;;;;5086339;28;20082;-62
2023/08/03 12:02:41;;;;;;;12.80;12.20;;;;;;;;;;5084521;28;20044;-61
2023/08/03 12:05:07;;;;;;;12.77;12.18;;;;;;;;;;5083248;28;20084;-62
2023/08/03 12:07:32;;;;;;;12.05;11.55;;;;;;;;;;5082915;28;20032;-60
2023/08/03 12:09:57;;;;;;;12.60;12.00;;;;;;;;;;5079543;28;20021;-63
2023/08/03 12:12:23;;;;;;;12.95;12.35;;;;;;;;;;5085092;28;20036;-61
2023/08/03 12:14:48;;;;;;;12.43;11.83;;;;;;;;;;5087606;28;20020;-62
2023/08/03 12:17:13;;;;;;;12.80;12.20;;;;;;;;;;5084314;28;20269;-60
2023/08/03 12:19:38;;;;;;;11.82;11.32;;;;;;;;;;5078879;28;20019;-61
2023/08/03 12:22:04;;;;;;;11.75;11.25;;;;;;;;;;5084212;28;20028;-59
2023/08/03 12:24:29;;;;;;;12.05;11.55;;;;;;;;;;5085619;28;20032;-60
2023/08/03 12:26:55;;;;;;;11.95;11.45;;;;;;;;;;5083172;28;20024;-60
2023/08/03 12:29:20;;;;;;;12.73;12.13;;;;;;;;;;5087192;28;20506;-61
2023/08/03 12:31:45;;;;;;;12.57;11.97;;;;;;;;;;5081945;28;20036;-61
2023/08/03 12:34:11;;;;;;;12.60;12.00;;;;;;;;;;5081198;28;20345;-61
2023/08/03 12:36:37;;;;;;;12.00;11.50;;;;;;;;;;5086336;28;20111;-61
2023/08/03 12:39:05;;;;;;;12.60;12.00;;;;;;;;;;5078055;28;20034;-60
2023/08/03 12:41:30;;;;;;;12.02;11.52;;;;;;;;;;5092413;28;20019;-60
2023/08/03 12:43:55;;;;;;;12.63;12.03;;;;;;;;;;5083583;28;20647;-62
2023/08/03 12:46:20;;;;;;;12.50;11.90;;;;;;;;;;5080521;28;20277;-61
2023/08/03 12:48:46;;;;;;;13.20;12.60;;;;;;;;;;5082865;28;20735;-61
2023/08/03 12:51:11;;;;;;;11.73;11.23;;;;;;;;;;5081821;28;20260;-62
2023/08/03 12:53:37;;;;;;;12.52;11.93;;;;;;;;;;5085618;28;20806;-61
2023/08/03 12:56:03;;;;;;;12.98;12.38;;;;;;;;;;5083321;28;20050;-61
2023/08/03 12:58:28;;;;;;;11.63;11.13;;;;;;;;;;5093356;28;20038;-61
2023/08/03 13:00:56;;;;;;;12.00;11.50;;;;;;;;;;5089468;28;20506;-62
2023/08/03 13:03:21;;;;;;;12.32;11.75;;;;;;;;;;5083696;28;20272;-60
2023/08/03 13:05:47;;;;;;;12.13;11.60;;;;;;;;;;5089770;28;20026;-62
2023/08/03 13:08:12;;;;;;;12.38;11.77;;;;;;;;;;5084665;28;20020;-61
2023/08/03 13:10:37;;;;;;;12.73;12.13;;;;;;;;;;5082088;28;20058;-63
2023/08/03 13:13:06;;;;;;;12.73;12.13;;;;;;;;;;5081529;28;20099;-61
2023/08/03 13:15:31;;;;;;;13.00;12.40;;;;;;;;;;5083564;28;20024;-60
2023/08/03 13:17:56;;;;;;;11.90;11.40;;;;;;;;;;5080813;28;20055;-60
2023/08/03 13:20:21;;;;;;;12.93;12.33;;;;;;;;;;5086744;28;20462;-61
2023/08/03 13:22:47;;;;;;;12.50;11.90;;;;;;;;;;5076910;28;20099;-61
2023/08/03 13:25:12;;;;;;;12.33;11.77;;;;;;;;;;5083488;28;20276;-61
2023/08/03 13:27:37;;;;;;;12.37;11.77;;;;;;;;;;5080094;28;20269;-63
2023/08/03 13:30:03;;;;;;;12.48;11.90;;;;;;;;;;5085847;28;20027;-62
2023/08/03 13:32:28;;;;;;;12.20;11.70;;;;;;;;;;5087545;28;20032;-62
2023/08/03 13:34:53;;;;;;;11.80;11.30;;;;;;;;;;5085254;28;20054;-61
2023/08/03 13:37:18;;;;;;;12.27;11.70;;;;;;;;;;5080697;28;20024;-60
2023/08/03 13:39:44;;;;;;;12.53;11.93;;;;;;;;;;5082855;28;20020;-62
2023/08/03 13:42:09;;;;;;;12.53;11.93;;;;;;;;;;5080551;28;20267;-61
2023/08/03 13:44:34;;;;;;;12.27;11.70;;;;;;;;;;5063252;28;20360;-62
2023/08/03 13:47:03;;;;;;;12.70;12.10;;;;;;;;;;5084939;28;20031;-61
2023/08/03 13:49:28;;;;;;;12.10;11.60;;;;;;;;;;5080166;28;20023;-60
2023/08/03 13:51:54;;;;;;;12.18;11.68;;;;;;;;;;5082090;28;20096;-60
2023/08/03 13:54:19;;;;;;;12.43;11.83;;;;;;;;;;5085630;28;20027;-60
2023/08/03 13:56:45;;;;;;;11.75;11.25;;;;;;;;;;5089372;28;20448;-61
2023/08/03 13:59:11;;;;;;;12.55;11.95;;;;;;;;;;5087397;28;20073;-62
2023/08/03 14:01:37;;;;;;;12.55;11.95;;;;;;;;;;5083892;28;20047;-60
2023/08/03 14:04:03;;;;;;;12.10;11.60;;;;;;;;;;5066143;28;20032;-60
2023/08/03 14:06:28;;;;;;;13.07;12.48;;;;;;;;;;5089761;28;20058;-61
2023/08/03 14:08:54;;;;;;;12.00;11.50;;;;;;;;;;5091272;28;20522;-62
2023/08/03 14:11:19;;;;;;;12.50;11.90;;;;;;;;;;5070841;28;20040;-61
2023/08/03 14:13:45;;;;;;;12.85;12.25;;;;;;;;;;5089633;28;20114;-61